Time;durP1;ratioP1;P1;durP2;ratioP2;P2;SDS_P1;SDS_P2;PMS_P1;PMS_P2;Temp;Humidity;BMP_temperature;BMP_pressure;BME280_temperature;BME280_humidity;BME280_pressure;Samples;Min_cycle;Max_cycle;Signal;HPM_P1;HPM_P2
2021/08/13 00:02:26;;;;;;;10.60;7.45;;;;;;;20.29;100.00;100720.38;5094608;28;20496;-66
2021/08/13 00:05:11;;;;;;;9.48;7.70;;;;;;;20.28;100.00;100718.69;5095174;28;20054;-66
2021/08/13 00:07:55;;;;;;;13.85;8.05;;;;;;;20.26;100.00;100714.50;5095357;28;20542;-66
2021/08/13 00:10:39;;;;;;;10.43;7.80;;;;;;;20.26;100.00;100719.91;5095474;28;20051;-66
2021/08/13 00:13:23;;;;;;;11.63;7.75;;;;;;;20.28;100.00;100715.13;5095412;28;20170;-66
2021/08/13 00:16:07;;;;;;;11.35;7.90;;;;;;;20.29;100.00;100716.81;5094891;28;20047;-66
2021/08/13 00:18:51;;;;;;;12.02;8.80;;;;;;;20.25;100.00;100710.13;5095070;28;20127;-66
2021/08/13 00:21:35;;;;;;;14.27;8.23;;;;;;;20.24;100.00;100706.59;5095121;28;20139;-66
2021/08/13 00:24:19;;;;;;;11.35;7.65;;;;;;;20.27;100.00;100708.91;5094960;28;20047;-67
2021/08/13 00:27:03;;;;;;;9.98;7.68;;;;;;;20.31;100.00;100704.75;5094585;28;20511;-65
2021/08/13 00:29:47;;;;;;;9.65;7.88;;;;;;;20.34;100.00;100700.81;5095089;28;20047;-66
2021/08/13 00:32:30;;;;;;;9.18;7.20;;;;;;;20.33;100.00;100710.00;5095211;28;20085;-67
2021/08/13 00:35:14;;;;;;;9.90;7.50;;;;;;;20.29;100.00;100720.38;5094891;28;20131;-66
2021/08/13 00:37:58;;;;;;;9.23;7.65;;;;;;;20.25;100.00;100727.22;5094698;28;20128;-66
2021/08/13 00:40:42;;;;;;;12.00;7.88;;;;;;;20.17;100.00;100731.91;5094746;28;20051;-66
2021/08/13 00:43:26;;;;;;;15.38;8.23;;;;;;;20.14;100.00;100733.16;5094824;28;20538;-67
2021/08/13 00:46:10;;;;;;;;;;;;;;;20.06;100.00;100729.72;5094609;28;20128;-67
2021/08/13 00:48:54;;;;;;;11.47;7.70;;;;;;;20.03;100.00;100730.09;5094741;28;19976;-66
2021/08/13 00:51:38;;;;;;;10.95;8.50;;;;;;;20.04;100.00;100737.22;5094553;28;20070;-66
2021/08/13 00:54:22;;;;;;;14.18;8.30;;;;;;;20.04;100.00;100743.47;5079175;28;20051;-66
2021/08/13 00:57:06;;;;;;;11.40;7.78;;;;;;;20.09;100.00;100732.06;5093738;28;20408;-66
2021/08/13 00:59:50;;;;;;;12.18;8.10;;;;;;;20.12;100.00;100734.38;5093423;28;20047;-66
2021/08/13 01:02:34;;;;;;;11.23;7.80;;;;;;;20.13;100.00;100738.75;5093124;28;20474;-66
2021/08/13 01:05:18;;;;;;;10.43;7.97;;;;;;;19.99;100.00;100750.47;5094138;28;20094;-66
2021/08/13 01:08:03;;;;;;;14.43;8.98;;;;;;;20.08;100.00;100754.72;5094268;28;20522;-66
2021/08/13 01:11:12;;;;;;;13.95;8.23;;;;;;;20.01;100.00;100760.03;5093950;28;20047;-66
2021/08/13 01:14:02;;;;;;;10.23;7.75;;;;;;;19.96;100.00;100757.09;5092976;28;20043;-66
2021/08/13 01:16:47;;;;;;;12.43;7.78;;;;;;;20.00;100.00;100749.44;5093191;28;20051;-66
2021/08/13 01:19:48;;;;;;;11.82;8.45;;;;;;;20.03;100.00;100732.81;5093075;28;20093;-65
2021/08/13 01:23:13;;;;;;;8.57;7.50;;;;;;;20.06;100.00;100736.00;5092704;28;20051;-66
2021/08/13 01:25:59;;;;;;;;;;;;;;;19.99;100.00;100750.47;5051807;28;20083;-66
2021/08/13 01:29:01;;;;;;;24.58;8.50;;;;;;;19.93;100.00;100745.81;5037360;28;19919;-66
2021/08/13 01:31:57;;;;;;;9.38;7.95;;;;;;;19.93;100.00;100746.66;5091126;28;20062;-65
2021/08/13 01:34:50;;;;;;;12.02;8.43;;;;;;;19.75;100.00;100754.38;5092665;28;20047;-64
2021/08/13 01:37:45;;;;;;;11.07;8.00;;;;;;;19.75;100.00;100745.41;5092854;28;20070;-66
2021/08/13 01:40:30;;;;;;;12.05;8.27;;;;;;;19.75;100.00;100740.00;5092685;28;20073;-66
2021/08/13 01:43:21;;;;;;;11.82;8.27;;;;;;;19.77;100.00;100727.09;5093445;28;20093;-66
2021/08/13 01:46:06;;;;;;;11.82;8.10;;;;;;;19.82;100.00;100716.56;5092397;28;20523;-65
2021/08/13 01:48:50;;;;;;;13.95;8.30;;;;;;;19.86;100.00;100723.25;5093626;28;20412;-65
2021/08/13 01:51:35;;;;;;;12.13;8.00;;;;;;;19.86;100.00;100718.69;5093376;28;20101;-66
2021/08/13 01:54:21;;;;;;;12.65;7.55;;;;;;;19.88;100.00;100723.88;5093481;28;20504;-66
2021/08/13 01:57:05;;;;;;;9.93;7.53;;;;;;;19.85;100.00;100743.22;5092754;28;20067;-67
2021/08/13 01:59:49;;;;;;;9.23;7.05;;;;;;;19.86;100.00;100740.34;5093524;28;20463;-66
2021/08/13 02:02:37;;;;;;;11.55;8.75;;;;;;;19.92;100.00;100741.44;5078187;28;20090;-66
2021/08/13 02:05:24;;;;;;;10.15;8.15;;;;;;;20.00;100.00;100741.31;5092654;28;20125;-65
2021/08/13 02:08:09;;;;;;;12.93;8.13;;;;;;;20.06;100.00;100725.16;5092442;28;20511;-66
2021/08/13 02:10:54;;;;;;;9.43;7.90;;;;;;;20.13;100.00;100736.06;5093448;28;20088;-66
2021/08/13 02:13:37;;;;;;;9.88;7.45;;;;;;;20.13;100.00;100739.56;5092371;28;20047;-65
2021/08/13 02:16:26;;;;;;;10.73;7.70;;;;;;;20.16;100.00;100725.69;5092018;28;20055;-66
2021/08/13 02:19:35;;;;;;;10.55;8.35;;;;;;;20.22;100.00;100719.47;5093241;28;20047;-66
2021/08/13 02:22:20;;;;;;;12.93;8.68;;;;;;;20.30;100.00;100721.22;5092219;28;20047;-65
2021/08/13 02:25:04;;;;;;;20.23;9.93;;;;;;;20.35;100.00;100697.09;5092145;28;20128;-66
2021/08/13 02:27:48;;;;;;;12.95;8.93;;;;;;;20.33;100.00;100713.50;5093205;28;20435;-66
2021/08/13 02:30:33;;;;;;;12.60;7.93;;;;;;;20.29;100.00;100714.94;5092223;28;20083;-64
2021/08/13 02:33:17;;;;;;;10.85;8.88;;;;;;;20.16;100.00;100722.97;5093238;28;20507;-66
2021/08/13 02:36:14;;;;;;;11.63;8.82;;;;;;;20.08;100.00;100739.34;5092864;28;20047;-66
2021/08/13 02:39:02;;;;;;;15.55;9.52;;;;;;;19.89;100.00;100771.59;5092404;28;20151;-66
2021/08/13 02:41:47;;;;;;;15.07;9.70;;;;;;;19.68;100.00;100812.97;5093203;28;20181;-66
2021/08/13 02:44:34;;;;;;;14.55;9.80;;;;;;;19.66;100.00;100814.16;5092026;28;20046;-65
2021/08/13 02:47:19;;;;;;;24.77;12.30;;;;;;;19.44;100.00;100767.31;5091777;28;20050;-64
2021/08/13 02:50:06;;;;;;;19.60;11.70;;;;;;;19.16;100.00;100731.16;5093329;28;20051;-63
2021/08/13 02:52:54;;;;;;;24.75;13.32;;;;;;;19.02;100.00;100734.72;5106182;28;20093;-61
2021/08/13 02:56:04;;;;;;;19.58;13.20;;;;;;;18.95;100.00;100735.63;5092743;28;20051;-64
2021/08/13 02:58:52;;;;;;;32.95;13.32;;;;;;;18.91;100.00;100758.63;5092764;28;20050;-64
2021/08/13 03:01:38;;;;;;;30.95;13.70;;;;;;;18.85;100.00;100791.78;5091864;28;20424;-64
2021/08/13 03:04:22;;;;;;;27.17;14.52;;;;;;;18.75;100.00;100802.88;5091898;28;20520;-65
2021/08/13 03:07:07;;;;;;;23.77;14.70;;;;;;;18.69;100.00;100809.00;5091973;28;20070;-64
2021/08/13 03:09:51;;;;;;;23.92;15.82;;;;;;;18.71;100.00;100811.53;5096255;28;20097;-65
2021/08/13 03:12:37;;;;;;;24.48;15.63;;;;;;;18.72;100.00;100807.78;5095459;28;20109;-65
2021/08/13 03:15:21;;;;;;;25.58;16.60;;;;;;;18.76;100.00;100798.31;5095981;28;20058;-65
2021/08/13 03:18:06;;;;;;;23.02;16.02;;;;;;;18.75;100.00;100797.47;5096459;28;20133;-64
2021/08/13 03:20:50;;;;;;;19.27;13.48;;;;;;;18.67;100.00;100802.13;5094943;28;20557;-64
2021/08/13 03:23:36;;;;;;;20.35;14.18;;;;;;;18.67;100.00;100772.41;5095067;28;20519;-65
2021/08/13 03:26:21;;;;;;;31.88;16.10;;;;;;;18.67;100.00;100780.50;5095970;28;20161;-65
2021/08/13 03:29:05;;;;;;;25.33;15.52;;;;;;;18.61;100.00;100794.75;5095947;28;20082;-65
2021/08/13 03:31:49;;;;;;;27.70;16.13;;;;;;;18.61;100.00;100783.94;5095884;28;20085;-65
2021/08/13 03:34:33;;;;;;;22.67;15.73;;;;;;;18.67;100.00;100777.81;5096448;28;20180;-63
2021/08/13 03:37:17;;;;;;;21.50;15.23;;;;;;;18.77;100.00;100779.22;5095780;28;20055;-64
2021/08/13 03:40:03;;;;;;;35.17;18.20;;;;;;;18.79;100.00;100797.94;5095758;28;20520;-64
2021/08/13 03:42:47;;;;;;;19.05;13.63;;;;;;;18.79;100.00;100798.75;5095899;28;20039;-64
2021/08/13 03:45:30;;;;;;;26.15;17.10;;;;;;;18.81;100.00;100806.69;5095967;28;20516;-64
2021/08/13 03:48:14;;;;;;;19.75;15.38;;;;;;;18.83;100.00;100804.66;5094967;28;20123;-64
2021/08/13 03:51:01;;;;;;;24.13;16.02;;;;;;;18.85;100.00;100813.41;5095976;28;20097;-65
2021/08/13 03:53:45;;;;;;;22.65;15.18;;;;;;;18.85;100.00;100808.00;5095426;28;20059;-65
2021/08/13 03:56:30;;;;;;;26.88;16.73;;;;;;;18.87;100.00;100798.69;5066162;28;20043;-65
2021/08/13 03:59:13;;;;;;;25.10;17.23;;;;;;;18.90;100.00;100800.19;5095706;28;20047;-65
2021/08/13 04:01:57;;;;;;;29.60;15.95;;;;;;;18.83;100.00;100800.09;5095379;28;20127;-65
2021/08/13 04:04:41;;;;;;;32.72;15.85;;;;;;;18.79;100.00;100795.25;5095527;28;20089;-65
2021/08/13 04:07:25;;;;;;;18.55;13.23;;;;;;;18.77;100.00;100789.19;5108704;28;20055;-65
2021/08/13 04:10:09;;;;;;;21.42;13.93;;;;;;;18.64;100.00;100788.97;5095436;28;20178;-65
2021/08/13 04:12:53;;;;;;;19.40;14.82;;;;;;;18.64;100.00;100799.75;5094397;28;20042;-64
2021/08/13 04:15:39;;;;;;;22.55;15.70;;;;;;;18.65;100.00;100807.69;5094843;28;20553;-65
2021/08/13 04:18:23;;;;;;;21.80;13.88;;;;;;;18.72;100.00;100810.50;5094223;28;20050;-65
2021/08/13 04:21:07;;;;;;;18.52;13.13;;;;;;;18.67;100.00;100805.66;5093749;28;20511;-63
2021/08/13 04:23:51;;;;;;;21.27;13.32;;;;;;;18.57;100.00;100818.56;5094162;28;20055;-64
2021/08/13 04:26:34;;;;;;;22.95;15.48;;;;;;;18.53;100.00;100816.41;5094781;28;20073;-65
2021/08/13 04:29:18;;;;;;;;;;;;;;;18.56;100.00;100816.88;5109206;28;20062;-65
2021/08/13 04:32:03;;;;;;;23.83;14.25;;;;;;;18.59;100.00;100834.59;5095042;28;20402;-65
2021/08/13 04:34:47;;;;;;;24.67;15.77;;;;;;;18.54;100.00;100826.19;5108245;28;20436;-65
2021/08/13 04:37:31;;;;;;;29.23;18.45;;;;;;;18.58;100.00;100822.13;5094908;28;20554;-65
2021/08/13 04:40:15;;;;;;;27.60;17.35;;;;;;;18.59;100.00;100821.09;5094859;28;20049;-65
2021/08/13 04:42:59;;;;;;;29.40;18.10;;;;;;;18.61;100.00;100805.53;5094770;28;20039;-65
2021/08/13 04:45:43;;;;;;;24.75;16.95;;;;;;;18.60;100.00;100802.03;5094173;28;20575;-65
2021/08/13 04:48:26;;;;;;;47.28;21.77;;;;;;;18.63;100.00;100807.03;5094254;28;20150;-66
2021/08/13 04:51:10;;;;;;;30.33;16.73;;;;;;;18.65;100.00;100817.63;5094624;28;20134;-65
2021/08/13 04:53:54;;;;;;;23.67;15.48;;;;;;;18.60;100.00;100811.97;5094406;28;20093;-65
2021/08/13 04:56:38;;;;;;;28.23;18.35;;;;;;;18.60;100.00;100829.03;5094604;28;20116;-65
2021/08/13 04:59:22;;;;;;;27.35;16.65;;;;;;;18.61;100.00;100817.19;5093500;28;20042;-64
2021/08/13 05:02:06;;;;;;;23.10;15.85;;;;;;;18.64;100.00;100821.38;5094150;28;20043;-65
2021/08/13 05:05:00;;;;;;;30.38;18.08;;;;;;;18.68;100.00;100828.94;5094232;28;20123;-65
2021/08/13 05:07:44;;;;;;;23.20;16.10;;;;;;;18.68;100.00;100822.69;5094329;28;20097;-64
2021/08/13 05:10:28;;;;;;;19.05;14.45;;;;;;;18.67;100.00;100821.03;5094125;28;20047;-65
2021/08/13 05:13:11;;;;;;;25.90;17.73;;;;;;;18.70;100.00;100826.91;5093981;28;20444;-65
2021/08/13 05:15:55;;;;;;;;;;;;;;;18.73;100.00;100822.97;5094206;28;20479;-65
2021/08/13 05:18:39;;;;;;;28.95;17.00;;;;;;;18.76;100.00;100828.03;5094117;28;19919;-65
2021/08/13 05:21:24;;;;;;;23.33;16.15;;;;;;;18.79;100.00;100822.25;5094055;28;20047;-65
2021/08/13 05:24:08;;;;;;;21.27;15.95;;;;;;;18.87;100.00;100822.19;5094288;28;20094;-65
2021/08/13 05:26:52;;;;;;;28.02;18.48;;;;;;;18.95;100.00;100831.03;5093768;28;20043;-65
2021/08/13 05:29:36;;;;;;;22.48;15.55;;;;;;;19.01;100.00;100832.16;5093767;28;20130;-65
2021/08/13 05:32:20;;;;;;;26.75;17.58;;;;;;;19.04;100.00;100835.34;5093298;28;20145;-65
2021/08/13 05:35:04;;;;;;;25.50;16.90;;;;;;;19.05;100.00;100841.56;5094151;28;20055;-65
2021/08/13 05:37:48;;;;;;;23.40;17.10;;;;;;;19.09;100.00;100832.91;5093818;28;20101;-65
2021/08/13 05:40:32;;;;;;;24.20;16.45;;;;;;;19.15;100.00;100837.59;5093687;28;20051;-64
2021/08/13 05:43:16;;;;;;;;;;;;;;;19.17;100.00;100840.13;5093168;28;20093;-64
2021/08/13 05:46:00;;;;;;;21.03;16.33;;;;;;;19.20;100.00;100846.00;5092652;28;19923;-65
2021/08/13 05:48:44;;;;;;;;;;;;;;;19.26;100.00;100849.81;5094103;28;20504;-65
2021/08/13 05:51:28;;;;;;;30.30;18.20;;;;;;;19.33;100.00;100850.75;5092409;28;19919;-65
2021/08/13 05:54:12;;;;;;;22.95;16.73;;;;;;;19.40;100.00;100852.53;5095373;28;20048;-64
2021/08/13 05:56:57;;;;;;;36.40;20.77;;;;;;;19.46;100.00;100857.19;5093638;28;20094;-64
2021/08/13 05:59:40;;;;;;;35.13;20.02;;;;;;;19.53;100.00;100851.88;5093563;28;20050;-64
2021/08/13 06:02:24;;;;;;;30.75;20.40;;;;;;;19.63;100.00;100855.13;5093266;28;20129;-64
2021/08/13 06:05:08;;;;;;;29.85;19.35;;;;;;;19.67;100.00;100859.13;5093180;28;20047;-64
2021/08/13 06:07:53;;;;;;;24.33;18.42;;;;;;;19.76;100.00;100847.19;5092304;28;20051;-64
2021/08/13 06:10:37;;;;;;;31.92;22.30;;;;;;;19.86;100.00;100848.56;5093469;28;20051;-65
2021/08/13 06:13:21;;;;;;;30.90;22.10;;;;;;;19.94;100.00;100845.75;5093489;28;20500;-64
2021/08/13 06:16:05;;;;;;;31.90;21.48;;;;;;;20.02;100.00;100851.03;5092963;28;20228;-64
2021/08/13 06:18:49;;;;;;;28.73;19.83;;;;;;;20.02;100.00;100852.91;5106744;28;20101;-65
2021/08/13 06:21:33;;;;;;;34.97;21.02;;;;;;;20.10;100.00;100858.25;5093008;28;20063;-64
2021/08/13 06:24:17;;;;;;;28.85;20.13;;;;;;;20.21;100.00;100853.16;5093198;28;20101;-65
2021/08/13 06:27:01;;;;;;;30.88;21.30;;;;;;;20.32;100.00;100860.78;5093010;28;20072;-63
2021/08/13 06:29:45;;;;;;;22.45;17.70;;;;;;;20.29;100.00;100855.75;5092319;28;20113;-65
2021/08/13 06:32:29;;;;;;;18.75;15.50;;;;;;;20.31;100.00;100847.44;5092248;28;20046;-65
2021/08/13 06:35:13;;;;;;;23.38;18.00;;;;;;;20.31;100.00;100864.53;5093247;28;20047;-64
2021/08/13 06:37:57;;;;;;;27.13;18.33;;;;;;;20.32;100.00;100870.78;5092906;28;20051;-63
2021/08/13 06:40:41;;;;;;;27.25;19.40;;;;;;;20.41;100.00;100869.63;5093311;28;20133;-65
2021/08/13 06:43:25;;;;;;;32.70;20.45;;;;;;;20.55;100.00;100869.56;5094691;28;20129;-65
2021/08/13 06:46:09;;;;;;;34.15;20.08;;;;;;;20.59;100.00;100876.28;5096715;28;20067;-65
2021/08/13 06:48:53;;;;;;;;;;;;;;;20.75;100.00;100867.03;5097161;28;20520;-65
2021/08/13 06:51:37;;;;;;;25.02;19.85;;;;;;;20.86;100.00;100858.41;5097023;28;19919;-63
2021/08/13 06:54:21;;;;;;;23.98;18.30;;;;;;;20.88;100.00;100856.34;5096879;28;20050;-65
2021/08/13 06:57:05;;;;;;;23.65;18.05;;;;;;;20.90;100.00;100863.25;5096859;28;20062;-64
2021/08/13 06:59:49;;;;;;;;;;;;;;;20.81;100.00;100871.69;5096942;28;20512;-64
2021/08/13 07:02:33;;;;;;;22.17;17.50;;;;;;;20.79;100.00;100865.59;5096470;28;19923;-65
2021/08/13 07:05:16;;;;;;;24.35;18.20;;;;;;;20.81;100.00;100877.09;5096520;28;20047;-64
2021/08/13 07:08:11;;;;;;;21.48;15.82;;;;;;;20.84;100.00;100874.00;5096408;28;20059;-65
2021/08/13 07:10:55;;;;;;;23.35;18.27;;;;;;;20.89;100.00;100883.25;5096578;28;20051;-65
2021/08/13 07:13:39;;;;;;;22.40;16.40;;;;;;;21.09;100.00;100880.69;5096254;28;20097;-65
2021/08/13 07:16:23;;;;;;;23.42;19.20;;;;;;;21.24;100.00;100883.13;5096131;28;20054;-65
2021/08/13 07:19:07;;;;;;;24.23;19.58;;;;;;;21.39;100.00;100872.97;5096277;28;20052;-65
2021/08/13 07:21:51;;;;;;;26.27;18.23;;;;;;;21.41;100.00;100881.78;5096032;28;20412;-65
2021/08/13 07:24:35;;;;;;;23.95;15.73;;;;;;;21.34;100.00;100880.03;5095934;28;20050;-65
2021/08/13 07:27:19;;;;;;;24.08;17.40;;;;;;;21.43;100.00;100876.97;5096005;28;20058;-65
2021/08/13 07:30:04;;;;;;;19.77;16.00;;;;;;;21.54;100.00;100887.28;5095988;28;20046;-65
2021/08/13 07:32:48;;;;;;;20.42;17.33;;;;;;;21.76;100.00;100883.47;5095866;28;20049;-66
2021/08/13 07:35:32;;;;;;;19.95;15.88;;;;;;;21.80;100.00;100892.84;5095798;28;20117;-65
2021/08/13 07:38:16;;;;;;;20.45;16.20;;;;;;;21.83;100.00;100891.63;5109545;28;20530;-65
2021/08/13 07:41:00;;;;;;;;;;;;;;;21.93;100.00;100873.94;5096055;28;20055;-65
2021/08/13 07:43:44;;;;;;;23.53;15.67;;;;;;;22.04;100.00;100883.38;5095754;28;19970;-65
2021/08/13 07:46:28;;;;;;;21.35;16.40;;;;;;;22.16;100.00;100890.72;5095590;28;20077;-64
2021/08/13 07:49:11;;;;;;;21.85;17.45;;;;;;;22.34;100.00;100882.84;5095636;28;20051;-65
2021/08/13 07:51:55;;;;;;;20.23;15.30;;;;;;;22.39;100.00;100888.50;5095534;28;20425;-65
2021/08/13 07:54:39;;;;;;;17.27;13.90;;;;;;;22.32;100.00;100898.50;5095233;28;20122;-66
2021/08/13 07:57:25;;;;;;;17.92;14.35;;;;;;;22.42;100.00;100906.31;5095652;28;20458;-65
2021/08/13 08:00:09;;;;;;;15.77;13.35;;;;;;;22.43;100.00;100911.50;5095290;28;20184;-64
2021/08/13 08:02:53;;;;;;;16.85;13.15;;;;;;;22.34;100.00;100923.59;5094821;28;20047;-67
2021/08/13 08:05:38;;;;;;;18.05;13.95;;;;;;;22.57;100.00;100921.38;5095073;28;20123;-66
2021/08/13 08:08:22;;;;;;;18.00;12.57;;;;;;;22.81;100.00;100912.63;5095480;28;20039;-66
2021/08/13 08:11:05;;;;;;;18.45;12.32;;;;;;;23.10;100.00;100914.09;5095665;28;20043;-63
2021/08/13 08:13:49;;;;;;;16.30;12.45;;;;;;;23.43;100.00;100914.97;5097059;28;20088;-65
2021/08/13 08:16:33;;;;;;;;;;;;;;;23.67;100.00;100912.41;5095335;28;20051;-66
2021/08/13 08:19:17;;;;;;;15.00;11.77;;;;;;;23.95;100.00;100910.25;5095314;28;19919;-66
2021/08/13 08:22:01;;;;;;;16.40;13.10;;;;;;;24.32;98.48;100912.19;5095199;28;20070;-65
2021/08/13 08:24:45;;;;;;;;;;;;;;;24.59;97.83;100905.56;5095169;28;20105;-65
2021/08/13 08:27:29;;;;;;;16.67;11.60;;;;;;;24.77;96.55;100911.09;5095087;28;20284;-66
2021/08/13 08:30:13;;;;;;;;;;;;;;;25.04;92.44;100915.31;5095461;28;20047;-66
2021/08/13 08:32:57;;;;;;;14.30;11.50;;;;;;;25.17;95.13;100921.50;5094924;28;20326;-66
2021/08/13 08:35:41;;;;;;;;;;;;;;;25.16;90.35;100922.56;5108777;28;20097;-67
2021/08/13 08:38:25;;;;;;;12.57;10.95;;;;;;;25.44;89.31;100914.75;5094713;28;20013;-65
2021/08/13 08:41:09;;;;;;;14.18;10.82;;;;;;;25.69;89.29;100922.91;5094710;28;20047;-65
2021/08/13 08:43:53;;;;;;;14.18;9.88;;;;;;;25.89;84.33;100934.47;5094773;28;20050;-65
2021/08/13 08:46:36;;;;;;;;;;;;;;;25.55;82.95;100929.56;5093849;28;20078;-66
2021/08/13 08:49:22;;;;;;;14.73;9.77;;;;;;;25.75;85.59;100927.47;5093624;28;19918;-63
2021/08/13 08:52:07;;;;;;;11.68;8.93;;;;;;;26.10;82.13;100929.41;5094299;28;20143;-66
2021/08/13 08:54:51;;;;;;;15.00;8.70;;;;;;;26.43;82.06;100926.25;5094462;28;20089;-64
2021/08/13 08:57:39;;;;;;;;;;;;;;;26.53;77.87;100929.31;5094621;28;20058;-65
2021/08/13 09:00:23;;;;;;;12.95;9.32;;;;;;;26.43;79.28;100920.78;5094227;28;19919;-66
2021/08/13 09:03:09;;;;;;;13.60;9.10;;;;;;;26.47;79.21;100916.50;5093416;28;20050;-66
2021/08/13 09:05:53;;;;;;;16.50;8.55;;;;;;;26.85;79.49;100917.03;5092463;28;20124;-66
2021/08/13 09:08:37;;;;;;;13.13;9.10;;;;;;;27.06;77.33;100922.78;5094321;28;20055;-66
2021/08/13 09:11:21;;;;;;;17.65;8.77;;;;;;;27.10;75.57;100924.81;5093170;28;20042;-66
2021/08/13 09:14:08;;;;;;;11.77;9.00;;;;;;;26.83;80.08;100922.72;5093033;28;20543;-66
2021/08/13 09:17:02;;;;;;;12.85;8.82;;;;;;;27.08;77.15;100921.47;5093128;28;20070;-66
2021/08/13 09:19:48;;;;;;;;;;;;;;;27.07;75.94;100941.72;5093499;28;20051;-66
2021/08/13 09:22:41;;;;;;;10.48;8.48;;;;;;;27.13;73.81;100929.84;5093975;28;19923;-66
2021/08/13 09:25:25;;;;;;;16.38;10.02;;;;;;;27.20;71.45;100940.69;5093839;28;20084;-66
2021/08/13 09:28:09;;;;;;;;;;;;;;;27.35;70.23;100933.69;5094248;28;20465;-66
2021/08/13 09:31:08;;;;;;;12.40;8.57;;;;;;;27.42;69.73;100931.66;5093921;28;19919;-66
2021/08/13 09:33:54;;;;;;;13.27;8.98;;;;;;;27.66;70.61;100933.34;5093648;28;20098;-65
2021/08/13 09:36:53;;;;;;;13.98;9.07;;;;;;;27.67;69.32;100936.91;5092586;28;20075;-66
2021/08/13 09:39:36;;;;;;;11.52;8.70;;;;;;;27.84;69.36;100929.66;5093839;28;20043;-66
2021/08/13 09:42:21;;;;;;;13.55;9.30;;;;;;;27.95;66.99;100935.09;5092675;28;20047;-66
2021/08/13 09:45:09;;;;;;;15.30;9.80;;;;;;;28.10;67.03;100935.44;5093378;28;20557;-65
2021/08/13 09:47:53;;;;;;;12.10;8.98;;;;;;;27.81;66.42;100944.66;5093934;28;20047;-66
2021/08/13 09:50:41;;;;;;;;;;;;;;;28.10;67.24;100929.09;5092695;28;20127;-66
2021/08/13 09:53:25;;;;;;;11.82;8.63;;;;;;;28.53;67.91;100929.50;5093602;28;19919;-66
2021/08/13 09:56:24;;;;;;;15.52;8.80;;;;;;;28.80;66.95;100933.28;5092375;28;20511;-66
2021/08/13 09:59:13;;;;;;;14.38;9.55;;;;;;;28.85;63.88;100938.88;5093168;28;20093;-66
2021/08/13 10:01:57;;;;;;;12.73;8.98;;;;;;;29.00;65.24;100931.78;5092162;28;20055;-66
2021/08/13 10:04:42;;;;;;;12.55;9.27;;;;;;;29.54;62.16;100933.81;5093405;28;20054;-65
2021/08/13 10:07:44;;;;;;;11.73;8.32;;;;;;;29.81;60.44;100936.66;5093118;28;20050;-67
2021/08/13 10:10:42;;;;;;;12.50;9.05;;;;;;;30.29;59.35;100934.84;5092922;28;20039;-66
2021/08/13 10:13:41;;;;;;;14.88;8.45;;;;;;;31.26;54.90;100931.78;5093579;28;20047;-66
2021/08/13 10:16:26;;;;;;;13.75;8.32;;;;;;;32.49;52.63;100932.00;5092883;28;20051;-66
2021/08/13 10:19:10;;;;;;;15.57;8.90;;;;;;;32.48;50.67;100929.53;5094688;28;20093;-67
2021/08/13 10:21:54;;;;;;;13.85;8.23;;;;;;;33.79;46.81;100921.91;5097237;28;20105;-66
2021/08/13 10:24:38;;;;;;;11.90;7.88;;;;;;;33.56;47.66;100930.75;5097343;28;20043;-66
2021/08/13 10:27:24;;;;;;;12.10;8.88;;;;;;;33.93;47.69;100920.19;5097311;28;20050;-67
2021/08/13 10:30:08;;;;;;;12.63;8.73;;;;;;;35.44;42.59;100917.38;5097028;28;20101;-66
2021/08/13 10:32:56;;;;;;;11.35;8.13;;;;;;;35.29;40.75;100918.34;5096336;28;20051;-66
2021/08/13 10:35:54;;;;;;;17.08;9.60;;;;;;;34.22;44.58;100926.78;5097128;28;20107;-66
2021/08/13 10:38:39;;;;;;;14.25;8.45;;;;;;;34.79;43.81;100924.25;5081889;28;20046;-66
2021/08/13 10:41:25;;;;;;;14.35;9.18;;;;;;;34.96;43.66;100921.91;5096762;28;20412;-67
2021/08/13 10:44:12;;;;;;;12.35;9.02;;;;;;;34.78;43.83;100925.38;5096240;28;20105;-65
2021/08/13 10:46:58;;;;;;;13.02;9.05;;;;;;;34.90;45.31;100922.25;5095643;28;20082;-66
2021/08/13 10:49:45;;;;;;;14.10;8.88;;;;;;;36.40;41.73;100911.31;5095888;28;20047;-66
2021/08/13 10:52:32;;;;;;;15.85;8.15;;;;;;;37.53;39.60;100919.28;5095843;28;20046;-66
2021/08/13 10:55:38;;;;;;;16.15;8.45;;;;;;;36.59;40.52;100909.41;5097009;28;20058;-66
2021/08/13 10:58:39;;;;;;;14.80;8.45;;;;;;;36.88;39.42;100923.16;5096851;28;20062;-67
2021/08/13 11:01:23;;;;;;;13.45;8.82;;;;;;;36.23;40.97;100915.69;5096609;28;20039;-66
2021/08/13 11:04:11;;;;;;;13.43;8.85;;;;;;;35.59;41.46;100912.50;5096404;28;20051;-66
2021/08/13 11:06:55;;;;;;;12.48;8.55;;;;;;;37.03;40.32;100914.59;5096397;28;20097;-66
2021/08/13 11:09:40;;;;;;;14.05;8.35;;;;;;;36.98;38.27;100918.22;5096228;28;20043;-66
2021/08/13 11:12:24;;;;;;;12.80;8.93;;;;;;;37.07;38.96;100919.22;5095490;28;20059;-66
2021/08/13 11:15:35;;;;;;;16.48;9.63;;;;;;;37.25;38.25;100906.41;5095203;28;20097;-67
2021/08/13 11:18:38;;;;;;;14.50;9.25;;;;;;;37.54;38.29;100912.59;5096582;28;20050;-66
2021/08/13 11:21:34;;;;;;;10.65;8.82;;;;;;;38.09;37.79;100911.56;5096353;28;20520;-66
2021/08/13 11:24:20;;;;;;;12.82;8.77;;;;;;;38.29;36.12;100922.28;5096047;28;20459;-67
2021/08/13 11:27:04;;;;;;;15.27;8.73;;;;;;;37.93;37.84;100910.19;5096008;28;20051;-66
2021/08/13 11:29:48;;;;;;;14.02;9.02;;;;;;;39.17;35.96;100912.13;5095892;28;20050;-67
2021/08/13 11:32:34;;;;;;;17.67;9.07;;;;;;;38.71;36.52;100902.38;5094846;28;20042;-67
2021/08/13 11:35:37;;;;;;;11.60;9.57;;;;;;;38.29;36.39;100911.13;5095797;28;20507;-66
2021/08/13 11:38:43;;;;;;;14.17;9.17;;;;;;;39.03;36.51;100907.75;5094923;28;20069;-66
2021/08/13 11:41:27;;;;;;;13.75;9.52;;;;;;;38.34;36.30;100909.06;5095636;28;20346;-66
2021/08/13 11:44:20;;;;;;;14.63;9.30;;;;;;;39.04;35.53;100912.19;5094941;28;20105;-66
2021/08/13 11:47:06;;;;;;;11.73;8.60;;;;;;;38.10;36.22;100913.19;5094838;28;20516;-65
2021/08/13 11:49:50;;;;;;;14.50;9.43;;;;;;;37.76;37.05;100902.44;5094493;28;20097;-67
2021/08/13 11:52:36;;;;;;;10.70;8.30;;;;;;;37.23;37.73;100903.13;5095515;28;20043;-66
2021/08/13 11:55:34;;;;;;;10.73;8.80;;;;;;;37.07;37.96;100910.09;5095677;28;20562;-68
2021/08/13 11:58:23;;;;;;;12.15;8.43;;;;;;;36.45;39.61;100916.78;5095702;28;20111;-67
2021/08/13 12:01:08;;;;;;;14.98;9.20;;;;;;;36.43;39.59;100913.50;5094319;28;20055;-65
2021/08/13 12:03:52;;;;;;;15.07;9.10;;;;;;;37.45;37.27;100906.06;5095828;28;20059;-66
2021/08/13 12:06:36;;;;;;;12.95;8.30;;;;;;;37.53;38.13;100888.69;5094225;28;20444;-65
2021/08/13 12:09:37;;;;;;;12.43;8.43;;;;;;;38.01;36.59;100901.94;5095134;28;20046;-67
2021/08/13 12:12:28;;;;;;;13.90;8.00;;;;;;;37.89;37.24;100892.44;5094460;28;20062;-65
2021/08/13 12:15:13;;;;;;;11.32;8.27;;;;;;;37.29;38.29;100890.78;5095313;28;20128;-67
2021/08/13 12:17:58;;;;;;;10.73;8.43;;;;;;;38.73;36.33;100894.53;5095041;28;20059;-65
2021/08/13 12:20:50;;;;;;;13.30;7.68;;;;;;;39.48;34.47;100902.66;5093886;28;20405;-66
2021/08/13 12:23:34;;;;;;;10.98;7.80;;;;;;;39.56;33.20;100896.31;5094219;28;20128;-66
2021/08/13 12:26:25;;;;;;;9.90;8.13;;;;;;;39.30;33.29;100899.28;5094782;28;20081;-66
2021/08/13 12:29:36;;;;;;;13.05;7.85;;;;;;;39.46;33.84;100893.81;5094070;28;20397;-66
2021/08/13 12:32:37;;;;;;;9.65;7.72;;;;;;;38.58;35.55;100903.22;5093950;28;20042;-66
2021/08/13 12:35:21;;;;;;;13.13;8.13;;;;;;;38.68;34.68;100895.47;5094112;28;20512;-66
2021/08/13 12:38:07;;;;;;;11.38;7.78;;;;;;;39.00;35.38;100897.22;5093637;28;20150;-66
2021/08/13 12:40:54;;;;;;;10.30;7.45;;;;;;;39.24;31.50;100909.72;5093775;28;20053;-67
2021/08/13 12:43:38;;;;;;;12.73;8.48;;;;;;;38.19;34.91;100903.00;5093800;28;20050;-65